Aviation Digital Data Service (ADDS)

Output produced by METARs form (1704 UTC 24 April 2017)
found at http://www.aviationweather.gov/adds/metars/
 
TAF LOXA 241115Z 2412/2421 04007KT 9999 FEW130 
     BECMG 2417/2419 VRB02KT SKC
       
LOWG 241650Z 18010KT 9999 FEW060 17/05 Q1013 NOSIG
TAF LOWG 241115Z 2412/2512 15004KT 9999 FEW060 SCT300 TX20/2512Z TN04/2502Z 
     TEMPO 2414/2418 19008KT 
     BECMG 2508/2510 21012KT
       
LOWI 241650Z 16016G28KT 090V190 9999 FEW080 17/02 Q1011 NOSIG
TAF AMD LOWI 241539Z 2415/2512 09007KT 9999 FEW060 SCT300 TX19/2415Z TN05/2505Z 
     TEMPO 2415/2418 11015G30KT 
     BECMG 2418/2420 27004KT 
     BECMG 2504/2506 27009KT 
     BECMG 2509/2511 11012G25KT
       
LOWK 241650Z 21007KT 170V260 9999 FEW045 16/04 Q1014 NOSIG
TAF LOWK 241115Z 2412/2512 13005KT 9999 FEW050 TX17/2414Z TN07/2504Z 
     TEMPO 2412/2418 20010G20KT 
     BECMG 2418/2420 VRB02KT
       
LOWL 241650Z VRB02KT CAVOK 15/01 Q1013 NOSIG
TAF LOWL 241115Z 2412/2512 09005KT CAVOK TX17/2512Z TN03/2503Z
       
LOWS 241650Z VRB02KT CAVOK 16/03 Q1012 NOSIG
TAF LOWS 241115Z 2412/2512 05007KT CAVOK TX16/2512Z TN02/2505Z 
     BECMG 2418/2420 15008KT 
     BECMG 2509/2511 32005KT 9999 FEW060 SCT300
       
LOWW 241650Z 13010KT CAVOK 15/03 Q1013 NOSIG
TAF LOWW 241115Z 2412/2518 14008KT CAVOK TX21/2515Z TN06/2504Z 
     TEMPO 2412/2418 18015KT 
     TEMPO 2513/2517 19015G25KT 9999 FEW060 FEW070CB
       
TAF LOXT 241115Z 2412/2421 06006KT 9999 FEW060
       
LOAV 241600Z 12010KT 40KM FEW050CU SCT300CI 17/01
TAF AMD LOAV 241205Z 2412/2421 09004KT 9999 FEW050 
     TEMPO 2412/2418 16015G25KT
       
LOAN 241600Z 18009KT 40KM FEW050CU SCT300CI
TAF LOAN 241125Z 2412/2421 12008KT 9999 FEW050 
     TEMPO 2412/2418 18010G20KT
       
TAF LOXN 241115Z 2412/2421 18010G20KT 9999 FEW050
       
LOXZ 241650Z 19010KT 40KM FEW050CU BKN065CU 15/01 Q1013
TAF LOXZ 241115Z 2412/2421 20010KT 9999 FEW045 
     BECMG 2415/2417 VRB03KT